Time;durP1;ratioP1;P1;durP2;ratioP2;P2;SDS_P1;SDS_P2;PMS_P1;PMS_P2;Temp;Humidity;BMP_temperature;BMP_pressure;BME280_temperature;BME280_humidity;BME280_pressure;Samples;Min_cycle;Max_cycle;Signal;HPM_P1;HPM_P2
2022/04/10 00:00:17;;;;;;;0.20;0.20;;;3.40;99.90;;;;;;5073462;28;20519;-81
2022/04/10 00:02:44;;;;;;;0.20;0.20;;;3.10;99.90;;;;;;5057734;28;20075;-81
2022/04/10 00:05:11;;;;;;;0.20;0.20;;;3.50;99.90;;;;;;5059076;28;20509;-80
2022/04/10 00:07:37;;;;;;;0.10;0.10;;;3.70;99.90;;;;;;5073343;28;20044;-81
2022/04/10 00:10:05;;;;;;;0.20;0.20;;;3.80;99.90;;;;;;5056973;28;20128;-81
2022/04/10 00:12:35;;;;;;;0.10;0.10;;;3.20;99.90;;;;;;5074094;28;20051;-80
2022/04/10 00:15:03;;;;;;;0.20;0.20;;;3.20;99.90;;;;;;5073371;28;20505;-81
2022/04/10 00:17:30;;;;;;;0.20;0.20;;;3.20;99.90;;;;;;5107191;28;20047;-81
2022/04/10 00:19:57;;;;;;;0.15;0.15;;;3.70;99.90;;;;;;5076976;28;20038;-81
2022/04/10 00:22:23;;;;;;;0.20;0.20;;;3.10;99.90;;;;;;5076906;28;20061;-81
2022/04/10 00:24:50;;;;;;;0.15;0.15;;;3.10;99.90;;;;;;5060885;28;20408;-81
2022/04/10 00:27:17;;;;;;;0.20;0.20;;;3.10;99.90;;;;;;5060338;28;20492;-81
2022/04/10 00:29:43;;;;;;;0.20;0.20;;;3.00;99.90;;;;;;5076673;28;20040;-81
2022/04/10 00:32:10;;;;;;;0.10;0.10;;;3.10;99.90;;;;;;5060429;28;20058;-81
2022/04/10 00:34:37;;;;;;;0.20;0.20;;;3.00;99.90;;;;;;5077055;28;20446;-81
2022/04/10 00:37:05;;;;;;;0.15;0.15;;;3.00;99.90;;;;;;5060315;28;20489;-81
2022/04/10 00:39:31;;;;;;;0.10;0.10;;;3.00;99.90;;;;;;5076995;28;20378;-81
2022/04/10 00:41:58;;;;;;;0.10;0.10;;;3.40;99.90;;;;;;5076737;28;20089;-80
2022/04/10 00:44:25;;;;;;;0.20;0.20;;;2.80;99.90;;;;;;5076358;28;20044;-81
2022/04/10 00:46:51;;;;;;;0.10;0.10;;;2.90;99.90;;;;;;5076606;28;20044;-80
2022/04/10 00:49:19;;;;;;;0.20;0.20;;;2.80;99.90;;;;;;5059842;28;20097;-80
2022/04/10 00:51:46;;;;;;;0.15;0.15;;;3.60;99.90;;;;;;5077032;28;20080;-80
2022/04/10 00:54:19;;;;;;;0.13;0.13;;;2.70;99.90;;;;;;5056425;28;20043;-81
2022/04/10 00:56:47;;;;;;;0.20;0.20;;;2.80;99.90;;;;;;5072754;28;20044;-81
2022/04/10 00:59:14;;;;;;;0.28;0.28;;;3.10;99.90;;;;;;5089348;28;20036;-81
2022/04/10 01:01:47;;;;;;;0.20;0.20;;;3.10;99.90;;;;;;5059953;28;20037;-81
2022/04/10 01:04:14;;;;;;;0.20;0.20;;;2.60;99.90;;;;;;5061740;28;20040;-80
2022/04/10 01:06:42;;;;;;;0.20;0.20;;;3.10;99.90;;;;;;5092916;28;20039;-81
2022/04/10 01:09:09;;;;;;;0.20;0.20;;;2.60;99.90;;;;;;5109428;28;20032;-81
2022/04/10 01:11:36;;;;;;;0.20;0.20;;;3.40;99.90;;;;;;5076654;28;20036;-80
2022/04/10 01:14:06;;;;;;;0.20;0.20;;;2.50;99.90;;;;;;5075854;28;20398;-81
2022/04/10 01:16:35;;;;;;;0.20;0.20;;;2.50;99.90;;;;;;5076447;28;20044;-81
2022/04/10 01:19:06;;;;;;;0.20;0.20;;;2.40;99.90;;;;;;5101563;28;20497;-81
2022/04/10 01:21:39;;;;;;;0.20;0.20;;;2.70;99.90;;;;;;5072869;28;20082;-81
2022/04/10 01:24:08;;;;;;;0.20;0.20;;;2.40;99.90;;;;;;5092836;28;20044;-80
2022/04/10 01:26:35;;;;;;;0.20;0.20;;;2.40;99.90;;;;;;5092468;28;20044;-81
2022/04/10 01:29:13;;;;;;;0.20;0.20;;;2.40;99.90;;;;;;5076135;28;20131;-81
2022/04/10 01:31:43;;;;;;;0.20;0.20;;;2.60;99.90;;;;;;5082531;28;20417;-81
2022/04/10 01:34:15;;;;;;;0.10;0.10;;;2.40;99.90;;;;;;5072771;28;20047;-81
2022/04/10 01:36:43;;;;;;;0.20;0.20;;;2.40;99.90;;;;;;5072434;28;20424;-82
2022/04/10 01:39:11;;;;;;;0.20;0.20;;;2.40;99.90;;;;;;5055925;28;20043;-81
2022/04/10 01:41:38;;;;;;;0.13;0.13;;;2.40;99.90;;;;;;5056228;28;20090;-80
2022/04/10 01:44:07;;;;;;;0.20;0.20;;;2.40;99.90;;;;;;5072899;28;20123;-81
2022/04/10 01:46:35;;;;;;;0.15;0.15;;;2.40;99.90;;;;;;5072442;28;20129;-81
2022/04/10 01:49:04;;;;;;;0.20;0.20;;;2.50;99.90;;;;;;5077790;28;20043;-81
2022/04/10 01:51:32;;;;;;;0.10;0.10;;;2.40;99.90;;;;;;5072063;28;20098;-80
2022/04/10 01:53:59;;;;;;;0.20;0.20;;;2.40;99.90;;;;;;5056092;28;20040;-81
2022/04/10 01:56:25;;;;;;;0.20;0.20;;;2.60;99.90;;;;;;5088511;28;20430;-80
2022/04/10 01:58:52;;;;;;;0.10;0.10;;;3.20;99.90;;;;;;5056235;28;20120;-81
2022/04/10 02:01:20;;;;;;;0.20;0.20;;;3.20;99.90;;;;;;5056043;28;20036;-80
2022/04/10 02:03:47;;;;;;;0.20;0.20;;;2.80;99.90;;;;;;5072548;28;20036;-81
2022/04/10 02:06:16;;;;;;;0.20;0.20;;;2.40;99.90;;;;;;5056208;28;20379;-80
2022/04/10 02:08:43;;;;;;;0.20;0.20;;;2.40;99.90;;;;;;5075018;28;20489;-80
2022/04/10 02:11:11;;;;;;;0.20;0.20;;;2.60;99.90;;;;;;5072417;28;20051;-81
2022/04/10 02:13:39;;;;;;;0.30;0.30;;;2.40;99.90;;;;;;5112342;28;20054;-80
2022/04/10 02:16:13;;;;;;;0.20;0.20;;;2.80;99.90;;;;;;5079225;28;20044;-80
2022/04/10 02:18:41;;;;;;;0.20;0.20;;;2.30;99.90;;;;;;5079647;28;20127;-80
2022/04/10 02:21:08;;;;;;;0.15;0.15;;;2.30;99.90;;;;;;5076015;28;20040;-80
2022/04/10 02:23:35;;;;;;;0.20;0.20;;;2.40;99.90;;;;;;5058818;28;20123;-80
2022/04/10 02:26:03;;;;;;;0.20;0.20;;;2.60;99.90;;;;;;5075696;28;20566;-80
2022/04/10 02:28:30;;;;;;;0.20;0.20;;;2.50;99.90;;;;;;5075649;28;20076;-81
2022/04/10 02:30:57;;;;;;;0.20;0.20;;;2.40;99.90;;;;;;5060532;28;20463;-80
2022/04/10 02:33:24;;;;;;;0.20;0.20;;;2.40;99.90;;;;;;5035785;28;20045;-81
2022/04/10 02:35:50;;;;;;;0.20;0.20;;;2.40;99.90;;;;;;5052135;28;20594;-81
2022/04/10 02:38:17;;;;;;;0.20;0.20;;;2.40;99.90;;;;;;5051979;28;20049;-80
2022/04/10 02:40:44;;;;;;;0.20;0.20;;;2.40;99.90;;;;;;5051823;28;20120;-80
2022/04/10 02:43:13;;;;;;;0.20;0.20;;;2.30;99.90;;;;;;5035743;28;20037;-80
2022/04/10 02:45:41;;;;;;;0.20;0.20;;;2.70;99.90;;;;;;5051843;28;20041;-81
2022/04/10 02:48:09;;;;;;;0.20;0.20;;;3.20;99.90;;;;;;5035659;28;20049;-80
2022/04/10 02:50:37;;;;;;;0.20;0.20;;;2.40;99.90;;;;;;5051638;28;20048;-80
2022/04/10 02:53:04;;;;;;;0.20;0.20;;;3.00;99.90;;;;;;5035487;28;20046;-80
2022/04/10 02:55:31;;;;;;;0.20;0.20;;;2.50;99.90;;;;;;5035240;28;20068;-81
2022/04/10 02:57:58;;;;;;;0.20;0.20;;;2.50;99.90;;;;;;5051512;28;20042;-80
2022/04/10 03:00:25;;;;;;;0.20;0.20;;;2.60;99.90;;;;;;5034738;28;20093;-80
2022/04/10 03:02:52;;;;;;;0.10;0.10;;;2.60;99.90;;;;;;5051486;28;20038;-80
2022/04/10 03:05:18;;;;;;;0.20;0.20;;;2.60;99.90;;;;;;5034945;28;20124;-80
2022/04/10 03:07:45;;;;;;;0.20;0.20;;;3.40;99.90;;;;;;5050879;28;20053;-80
2022/04/10 03:10:12;;;;;;;0.20;0.20;;;3.40;99.90;;;;;;5035085;28;20037;-80
2022/04/10 03:12:38;;;;;;;0.20;0.20;;;2.60;99.90;;;;;;5034554;28;20065;-80
2022/04/10 03:15:06;;;;;;;0.20;0.20;;;3.20;99.90;;;;;;5035033;28;20038;-80
2022/04/10 03:17:32;;;;;;;0.20;0.20;;;2.60;99.90;;;;;;5034667;28;20045;-80
2022/04/10 03:19:59;;;;;;;0.20;0.20;;;2.60;99.90;;;;;;5052586;28;20041;-81
2022/04/10 03:22:26;;;;;;;0.20;0.20;;;2.50;99.90;;;;;;5034920;28;20486;-80
2022/04/10 03:24:52;;;;;;;0.20;0.20;;;2.40;99.90;;;;;;5050896;28;20041;-80
2022/04/10 03:27:19;;;;;;;0.20;0.20;;;2.40;99.90;;;;;;5051154;28;20053;-80
2022/04/10 03:29:46;;;;;;;0.20;0.20;;;2.40;99.90;;;;;;5038398;28;20037;-80
2022/04/10 03:32:12;;;;;;;0.20;0.20;;;2.70;99.90;;;;;;5077459;28;20517;-80
2022/04/10 03:34:39;;;;;;;0.10;0.10;;;3.20;99.90;;;;;;5077366;28;20505;-80
2022/04/10 03:37:06;;;;;;;0.20;0.20;;;2.40;99.90;;;;;;5077920;28;20040;-80
2022/04/10 03:39:32;;;;;;;0.20;0.20;;;2.50;99.90;;;;;;5077638;28;20451;-81
2022/04/10 03:41:59;;;;;;;0.20;0.20;;;2.50;99.90;;;;;;5077859;28;20036;-80
2022/04/10 03:44:26;;;;;;;0.20;0.20;;;2.40;99.90;;;;;;5111042;28;20141;-80
2022/04/10 03:46:53;;;;;;;0.20;0.20;;;2.40;99.90;;;;;;5060881;28;20040;-80
2022/04/10 03:49:19;;;;;;;0.20;0.20;;;2.80;99.90;;;;;;5094307;28;20036;-81
2022/04/10 03:51:46;;;;;;;0.20;0.20;;;2.50;99.90;;;;;;5076988;28;20036;-81
2022/04/10 03:54:13;;;;;;;0.20;0.20;;;2.50;99.90;;;;;;5061013;28;20180;-79
2022/04/10 03:56:39;;;;;;;0.20;0.20;;;2.80;99.90;;;;;;5077450;28;20397;-81
2022/04/10 03:59:06;;;;;;;0.20;0.20;;;2.50;99.90;;;;;;5061486;28;20039;-80
2022/04/10 04:01:33;;;;;;;0.20;0.20;;;2.50;99.90;;;;;;5076879;28;20400;-80
2022/04/10 04:03:59;;;;;;;0.20;0.20;;;3.30;99.90;;;;;;5060807;28;20083;-80
2022/04/10 04:06:26;;;;;;;0.20;0.20;;;2.50;99.90;;;;;;5060615;28;20452;-80
2022/04/10 04:08:53;;;;;;;0.20;0.20;;;2.50;99.90;;;;;;5076683;28;20043;-80
2022/04/10 04:11:19;;;;;;;0.20;0.20;;;3.10;99.90;;;;;;5073588;28;20132;-80
2022/04/10 04:13:46;;;;;;;0.20;0.20;;;2.40;99.90;;;;;;5057103;28;20155;-80
2022/04/10 04:16:13;;;;;;;0.20;0.20;;;2.40;99.90;;;;;;5041100;28;20490;-80
2022/04/10 04:18:39;;;;;;;0.20;0.20;;;2.40;99.90;;;;;;5057141;28;20602;-80
2022/04/10 04:21:06;;;;;;;0.17;0.17;;;2.30;99.90;;;;;;5057281;28;20551;-81
2022/04/10 04:23:33;;;;;;;0.20;0.20;;;2.30;99.90;;;;;;5056589;28;20110;-80
2022/04/10 04:25:59;;;;;;;0.20;0.20;;;2.30;99.90;;;;;;5073115;28;20177;-80
2022/04/10 04:28:26;;;;;;;0.20;0.20;;;2.20;99.90;;;;;;5073307;28;20047;-80
2022/04/10 04:30:53;;;;;;;0.20;0.20;;;2.10;99.90;;;;;;5072267;28;20056;-81
2022/04/10 04:33:20;;;;;;;0.20;0.20;;;2.10;99.90;;;;;;5067282;28;20048;-80
2022/04/10 04:35:47;;;;;;;0.20;0.20;;;3.10;99.90;;;;;;5089655;28;20040;-80
2022/04/10 04:38:13;;;;;;;0.10;0.10;;;2.20;99.90;;;;;;5073234;28;20040;-80
2022/04/10 04:40:40;;;;;;;0.20;0.20;;;2.20;99.90;;;;;;5072721;28;20064;-80
2022/04/10 04:43:08;;;;;;;0.20;0.20;;;3.10;99.90;;;;;;5080725;28;20047;-80
2022/04/10 04:45:35;;;;;;;0.20;0.20;;;2.40;99.90;;;;;;5076677;28;20521;-81
2022/04/10 04:48:02;;;;;;;0.20;0.20;;;2.40;99.90;;;;;;5076029;28;20135;-80
2022/04/10 04:50:29;;;;;;;0.20;0.20;;;2.40;99.90;;;;;;5075675;28;20130;-81
2022/04/10 04:52:56;;;;;;;0.20;0.20;;;2.40;99.90;;;;;;5059450;28;20082;-81
2022/04/10 04:55:22;;;;;;;0.20;0.20;;;2.50;99.90;;;;;;5092815;28;20040;-81
2022/04/10 04:57:49;;;;;;;0.10;0.10;;;2.50;99.90;;;;;;5059536;28;20063;-80
2022/04/10 05:00:16;;;;;;;0.20;0.20;;;3.10;99.90;;;;;;5076192;28;20036;-81
2022/04/10 05:02:44;;;;;;;0.20;0.20;;;2.50;99.90;;;;;;5092504;28;20373;-80
2022/04/10 05:05:10;;;;;;;0.10;0.10;;;2.50;99.90;;;;;;5076367;28;20037;-80
2022/04/10 05:07:37;;;;;;;0.20;0.20;;;2.70;99.90;;;;;;5056419;28;20206;-81
2022/04/10 05:10:04;;;;;;;0.17;0.17;;;2.50;99.90;;;;;;5056063;28;20060;-80
2022/04/10 05:12:32;;;;;;;0.20;0.20;;;2.40;99.90;;;;;;5072734;28;20123;-81
2022/04/10 05:14:59;;;;;;;0.20;0.20;;;2.40;99.90;;;;;;5088946;28;20040;-80
2022/04/10 05:17:28;;;;;;;0.20;0.20;;;2.50;99.90;;;;;;5072954;28;20040;-80
2022/04/10 05:19:54;;;;;;;0.20;0.20;;;2.80;99.90;;;;;;5056330;28;20051;-80
2022/04/10 05:22:21;;;;;;;0.20;0.20;;;2.40;99.90;;;;;;5056442;28;20120;-81
2022/04/10 05:24:48;;;;;;;0.10;0.10;;;2.80;99.90;;;;;;5072041;28;20040;-81
2022/04/10 05:27:15;;;;;;;0.20;0.20;;;2.50;99.90;;;;;;5109509;28;20040;-80
2022/04/10 05:29:41;;;;;;;0.20;0.20;;;2.40;99.90;;;;;;5059412;28;20458;-80
2022/04/10 05:32:10;;;;;;;0.20;0.20;;;2.40;99.90;;;;;;5085518;28;20505;-81
2022/04/10 05:34:37;;;;;;;0.20;0.20;;;2.40;99.90;;;;;;5104527;28;20041;-81
2022/04/10 05:37:04;;;;;;;0.22;0.22;;;2.40;99.90;;;;;;5052175;28;20677;-80
2022/04/10 05:39:30;;;;;;;0.20;0.20;;;2.30;99.90;;;;;;5071069;28;20076;-80
2022/04/10 05:41:57;;;;;;;0.20;0.20;;;2.50;99.90;;;;;;5106944;28;20501;-80
2022/04/10 05:44:24;;;;;;;0.20;0.20;;;2.40;99.90;;;;;;5076055;28;20528;-80
2022/04/10 05:46:50;;;;;;;0.10;0.10;;;2.40;99.90;;;;;;5075937;28;20489;-80
2022/04/10 05:49:17;;;;;;;0.20;0.20;;;2.40;99.90;;;;;;5059743;28;20094;-80
2022/04/10 05:51:44;;;;;;;0.20;0.20;;;2.40;99.90;;;;;;5075384;28;20078;-81
2022/04/10 05:54:13;;;;;;;0.20;0.20;;;2.50;99.90;;;;;;5079131;28;20040;-80
2022/04/10 05:56:40;;;;;;;0.20;0.20;;;3.50;99.90;;;;;;5081393;28;20080;-81
2022/04/10 05:59:07;;;;;;;0.17;0.17;;;2.60;99.90;;;;;;5059428;28;20029;-82
2022/04/10 06:01:34;;;;;;;0.10;0.10;;;2.70;99.90;;;;;;5059577;28;20756;-80
2022/04/10 06:04:01;;;;;;;0.10;0.10;;;2.90;99.90;;;;;;5059047;28;20040;-81
2022/04/10 06:06:27;;;;;;;0.10;0.10;;;2.80;99.90;;;;;;5059523;28;20091;-81
2022/04/10 06:08:54;;;;;;;0.20;0.20;;;3.40;99.90;;;;;;5075929;28;20051;-81
2022/04/10 06:11:21;;;;;;;0.20;0.20;;;2.90;99.90;;;;;;5076112;28;20618;-81
2022/04/10 06:13:47;;;;;;;0.20;0.20;;;3.00;99.90;;;;;;5059132;28;20416;-81
2022/04/10 06:16:14;;;;;;;0.20;0.20;;;3.00;99.90;;;;;;5058849;28;20127;-80
2022/04/10 06:18:41;;;;;;;0.28;0.28;;;3.30;99.90;;;;;;5075804;28;20044;-81
2022/04/10 06:21:08;;;;;;;0.20;0.20;;;3.20;99.90;;;;;;5086841;28;20043;-81
2022/04/10 06:23:35;;;;;;;0.20;0.20;;;3.40;99.90;;;;;;5096013;28;20032;-81
2022/04/10 06:26:01;;;;;;;0.20;0.20;;;3.30;99.90;;;;;;5111864;28;20508;-81
2022/04/10 06:28:30;;;;;;;0.20;0.20;;;3.20;99.90;;;;;;5078964;28;20075;-81
2022/04/10 06:30:57;;;;;;;0.20;0.20;;;3.90;99.90;;;;;;5065125;28;20060;-81
2022/04/10 06:33:23;;;;;;;0.10;0.10;;;3.20;99.90;;;;;;5088533;28;20094;-81
2022/04/10 06:35:50;;;;;;;0.13;0.13;;;3.20;99.90;;;;;;5059801;28;20041;-82
2022/04/10 06:38:17;;;;;;;0.20;0.20;;;3.20;99.90;;;;;;5054993;28;20025;-82
2022/04/10 06:40:45;;;;;;;0.20;0.20;;;3.50;99.90;;;;;;5035484;28;20487;-82
2022/04/10 06:43:12;;;;;;;0.20;0.20;;;3.40;99.90;;;;;;5019620;28;20394;-81
2022/04/10 06:45:39;;;;;;;0.20;0.20;;;3.70;99.90;;;;;;5066416;28;20123;-81
2022/04/10 06:48:06;;;;;;;0.10;0.10;;;4.30;99.90;;;;;;5034935;28;20045;-82
2022/04/10 06:50:33;;;;;;;0.20;0.20;;;3.70;99.90;;;;;;5052262;28;20044;-81
2022/04/10 06:52:59;;;;;;;0.10;0.10;;;3.80;99.90;;;;;;5067920;28;20038;-81
2022/04/10 06:55:26;;;;;;;0.20;0.20;;;3.70;99.90;;;;;;5071281;28;20547;-81
2022/04/10 06:57:53;;;;;;;0.10;0.10;;;3.80;99.90;;;;;;5071550;28;20136;-81
2022/04/10 07:00:20;;;;;;;0.20;0.20;;;3.50;99.90;;;;;;5071531;28;20037;-82
2022/04/10 07:02:48;;;;;;;0.20;0.20;;;3.50;99.90;;;;;;5071707;28;20032;-82
2022/04/10 07:05:15;;;;;;;0.20;0.20;;;3.70;99.90;;;;;;5071641;28;20714;-82
2022/04/10 07:07:41;;;;;;;0.17;0.17;;;3.60;99.90;;;;;;5071562;28;20040;-82
2022/04/10 07:10:09;;;;;;;0.17;0.17;;;3.40;99.90;;;;;;5059708;28;20049;-81
2022/04/10 07:12:35;;;;;;;0.10;0.10;;;3.40;99.90;;;;;;5087786;28;20049;-81
2022/04/10 07:15:03;;;;;;;0.20;0.20;;;3.70;99.90;;;;;;5070978;28;20037;-81
2022/04/10 07:17:30;;;;;;;0.20;0.20;;;3.60;99.90;;;;;;5071384;28;20041;-81
2022/04/10 07:19:56;;;;;;;0.20;0.20;;;4.00;99.90;;;;;;5071094;28;20516;-82
2022/04/10 07:25:08;;;;;;;0.10;0.10;;;3.90;99.90;;;;;;5073161;28;20084;-82
2022/04/10 07:27:35;;;;;;;0.20;0.20;;;4.00;99.90;;;;;;5071144;28;20130;-82
2022/04/10 07:30:02;;;;;;;0.10;0.10;;;4.20;99.90;;;;;;5058074;28;20187;-81
2022/04/10 07:32:29;;;;;;;0.13;0.13;;;4.10;99.90;;;;;;5054278;28;20045;-81
2022/04/10 07:34:55;;;;;;;0.10;0.10;;;4.30;99.90;;;;;;5054488;28;20047;-81
2022/04/10 07:37:22;;;;;;;0.15;0.15;;;4.80;99.90;;;;;;5070551;28;20124;-81
2022/04/10 07:39:49;;;;;;;0.10;0.10;;;4.80;99.90;;;;;;5037934;28;20037;-81
2022/04/10 07:42:15;;;;;;;0.20;0.20;;;4.60;99.90;;;;;;5053958;28;20040;-81
2022/04/10 07:44:42;;;;;;;0.10;0.10;;;4.50;99.90;;;;;;5052112;28;20041;-81
2022/04/10 07:47:27;;;;;;;0.10;0.10;;;4.80;99.90;;;;;;5066663;28;20045;-82
2022/04/10 07:49:54;;;;;;;0.10;0.10;;;4.90;99.90;;;;;;5052821;28;20068;-82
2022/04/10 07:52:22;;;;;;;0.10;0.10;;;5.00;99.90;;;;;;5051232;28;20045;-82
2022/04/10 07:54:52;;;;;;;0.10;0.10;;;5.30;99.90;;;;;;5052786;28;20041;-82
2022/04/10 07:57:19;;;;;;;0.10;0.10;;;5.00;99.90;;;;;;5069905;28;20399;-83
2022/04/10 07:59:46;;;;;;;0.20;0.20;;;4.90;99.90;;;;;;5050768;28;20045;-82
2022/04/10 08:02:13;;;;;;;0.10;0.10;;;5.10;99.90;;;;;;5066539;28;20025;-83
2022/04/10 08:04:40;;;;;;;0.10;0.10;;;4.90;99.90;;;;;;5075729;28;20784;-83
2022/04/10 08:07:08;;;;;;;0.10;0.10;;;4.90;99.90;;;;;;5034213;28;20410;-83
2022/04/10 08:09:34;;;;;;;0.10;0.10;;;5.10;99.90;;;;;;5069073;28;20538;-82
2022/04/10 08:12:01;;;;;;;0.10;0.10;;;5.40;99.90;;;;;;5035930;28;20132;-84
2022/04/10 08:14:28;;;;;;;0.10;0.10;;;5.60;99.90;;;;;;5069174;28;20040;-82
2022/04/10 08:16:55;;;;;;;0.10;0.10;;;5.70;99.90;;;;;;5033266;28;20512;-83
2022/04/10 08:19:22;;;;;;;0.10;0.10;;;5.70;99.90;;;;;;5033761;28;20049;-82
2022/04/10 08:21:48;;;;;;;0.10;0.10;;;5.80;99.90;;;;;;5064772;28;20116;-83
2022/04/10 08:24:15;;;;;;;0.10;0.10;;;5.80;99.90;;;;;;5062531;28;20120;-83
2022/04/10 08:26:42;;;;;;;0.10;0.10;;;5.90;99.90;;;;;;5033511;28;20064;-83
2022/04/10 08:29:09;;;;;;;0.10;0.10;;;6.10;99.90;;;;;;5035893;28;20041;-83
2022/04/10 08:31:36;;;;;;;0.10;0.10;;;6.10;99.90;;;;;;5055904;28;20094;-83
2022/04/10 08:34:02;;;;;;;0.10;0.10;;;6.20;99.90;;;;;;5049341;28;20049;-83
2022/04/10 08:36:29;;;;;;;0.10;0.10;;;6.20;99.90;;;;;;5062313;28;20041;-82
2022/04/10 08:38:56;;;;;;;0.10;0.10;;;6.20;99.90;;;;;;5053235;28;20098;-83
2022/04/10 08:41:31;;;;;;;0.10;0.10;;;6.20;99.90;;;;;;5051561;28;20037;-82
2022/04/10 08:44:02;;;;;;;0.10;0.10;;;6.30;99.90;;;;;;5084319;28;20122;-83
2022/04/10 08:46:30;;;;;;;0.10;0.10;;;6.30;99.90;;;;;;5066879;28;20056;-81
2022/04/10 08:48:58;;;;;;;0.10;0.10;;;6.40;99.90;;;;;;5058201;28;20076;-82
2022/04/10 08:51:27;;;;;;;0.10;0.10;;;6.60;99.90;;;;;;5068385;28;20123;-82
2022/04/10 08:53:54;;;;;;;0.10;0.10;;;7.10;99.90;;;;;;5052525;28;20405;-83
2022/04/10 08:56:23;;;;;;;0.10;0.10;;;6.80;99.90;;;;;;5068749;28;20044;-82
2022/04/10 08:58:50;;;;;;;0.08;0.08;;;7.20;99.90;;;;;;5068714;28;20041;-81
2022/04/10 09:01:22;;;;;;;0.10;0.10;;;7.80;99.90;;;;;;5068950;28;20080;-82
2022/04/10 09:03:49;;;;;;;0.10;0.10;;;7.00;99.90;;;;;;5049913;28;20041;-81
2022/04/10 09:06:16;;;;;;;0.10;0.10;;;7.20;99.90;;;;;;5059180;28;20037;-82
2022/04/10 09:08:44;;;;;;;0.10;0.10;;;7.30;99.90;;;;;;5065527;28;20077;-82
2022/04/10 09:11:11;;;;;;;0.10;0.10;;;7.50;99.90;;;;;;5081899;28;20037;-84
2022/04/10 09:13:51;;;;;;;0.10;0.10;;;7.60;99.90;;;;;;5049095;28;20038;-83
2022/04/10 09:16:22;;;;;;;0.05;0.05;;;7.80;99.90;;;;;;5086039;28;20049;-82
2022/04/10 09:18:52;;;;;;;0.08;0.08;;;7.90;99.90;;;;;;5072017;28;20053;-84
2022/04/10 09:21:32;;;;;;;0.10;0.10;;;7.90;99.90;;;;;;5067377;28;20033;-81
2022/04/10 09:24:10;;;;;;;0.10;0.10;;;7.70;99.90;;;;;;5075416;28;20494;-83
2022/04/10 09:26:47;;;;;;;0.10;0.10;;;7.40;99.90;;;;;;5086728;28;20041;-84
2022/04/10 09:29:16;;;;;;;0.10;0.10;;;7.30;99.90;;;;;;5072090;28;20045;-82
2022/04/10 09:31:43;;;;;;;0.10;0.10;;;7.40;99.90;;;;;;5069456;28;20057;-84
2022/04/10 09:34:15;;;;;;;0.10;0.10;;;7.60;99.90;;;;;;5062390;28;20057;-83
2022/04/10 09:36:59;;;;;;;0.10;0.10;;;7.50;99.90;;;;;;5056446;28;20044;-81
2022/04/10 09:39:39;;;;;;;0.00;0.00;;;7.50;99.90;;;;;;5045744;28;20026;-81
2022/04/10 09:42:08;;;;;;;0.10;0.10;;;7.50;99.90;;;;;;5052494;28;20034;-83
2022/04/10 09:44:36;;;;;;;0.00;0.00;;;7.50;99.90;;;;;;5052594;28;20048;-81
2022/04/10 09:47:06;;;;;;;0.10;0.10;;;7.60;99.90;;;;;;5072614;28;20738;-84
2022/04/10 09:49:37;;;;;;;0.10;0.10;;;7.50;99.90;;;;;;5052821;28;20087;-82
2022/04/10 09:52:07;;;;;;;0.10;0.10;;;7.60;99.90;;;;;;5036097;28;20037;-82
2022/04/10 09:54:55;;;;;;;0.10;0.10;;;7.70;99.90;;;;;;5052349;28;20107;-83
2022/04/10 09:57:22;;;;;;;0.10;0.10;;;7.70;99.90;;;;;;5037226;28;20087;-83
2022/04/10 09:59:51;;;;;;;0.10;0.10;;;7.80;99.90;;;;;;5035917;28;20052;-83
2022/04/10 10:02:23;;;;;;;0.00;0.00;;;7.90;99.90;;;;;;5052418;28;20040;-82
2022/04/10 10:04:50;;;;;;;0.00;0.00;;;8.10;99.90;;;;;;5036275;28;20041;-83
2022/04/10 10:07:19;;;;;;;0.10;0.10;;;8.30;99.90;;;;;;5051787;28;20115;-82
2022/04/10 10:09:48;;;;;;;0.10;0.10;;;8.30;99.90;;;;;;5056925;28;20115;-81
2022/04/10 10:12:17;;;;;;;0.10;0.10;;;8.30;99.90;;;;;;5085309;28;20152;-83
2022/04/10 10:14:45;;;;;;;0.08;0.08;;;8.40;99.90;;;;;;5051987;28;20041;-82
2022/04/10 10:17:11;;;;;;;0.10;0.10;;;8.80;99.90;;;;;;5052058;28;20041;-83
2022/04/10 10:19:41;;;;;;;0.10;0.10;;;8.80;99.90;;;;;;5051074;28;20037;-82
2022/04/10 10:22:10;;;;;;;0.10;0.10;;;8.80;99.90;;;;;;5035919;28;20200;-81
2022/04/10 10:24:45;;;;;;;0.00;0.00;;;8.80;99.90;;;;;;5062890;28;20037;-81
2022/04/10 10:27:15;;;;;;;0.10;0.10;;;8.50;99.90;;;;;;5070571;28;20037;-82
2022/04/10 10:30:09;;;;;;;0.20;0.20;;;8.30;99.90;;;;;;5051548;28;20053;-83
2022/04/10 10:32:41;;;;;;;0.10;0.10;;;8.30;99.90;;;;;;5086916;28;20052;-84
2022/04/10 10:35:31;;;;;;;0.10;0.10;;;8.30;99.90;;;;;;5071500;28;20041;-82
2022/04/10 10:38:00;;;;;;;0.08;0.08;;;8.40;99.90;;;;;;5069984;28;20043;-81
2022/04/10 10:40:27;;;;;;;0.00;0.00;;;8.60;99.90;;;;;;5068687;28;20872;-83
2022/04/10 10:42:59;;;;;;;0.10;0.10;;;8.50;99.90;;;;;;5080486;28;20037;-81
2022/04/10 10:45:32;;;;;;;0.10;0.10;;;8.50;99.90;;;;;;5087298;28;20044;-81
2022/04/10 10:48:24;;;;;;;0.05;0.05;;;8.50;99.90;;;;;;5088345;28;20090;-83
2022/04/10 10:50:54;;;;;;;0.10;0.10;;;8.60;99.90;;;;;;5078656;28;20044;-83
2022/04/10 10:53:59;;;;;;;0.10;0.10;;;8.70;99.90;;;;;;5034879;28;20045;-81
2022/04/10 10:56:36;;;;;;;0.10;0.10;;;8.80;99.90;;;;;;5068737;28;20144;-82
2022/04/10 10:59:20;;;;;;;0.10;0.10;;;8.80;99.90;;;;;;5070062;28;20053;-81
2022/04/10 11:02:10;;;;;;;0.10;0.10;;;8.80;99.90;;;;;;5078871;28;20102;-81
2022/04/10 11:04:46;;;;;;;0.10;0.10;;;8.90;99.90;;;;;;5064369;28;20041;-81
2022/04/10 11:07:19;;;;;;;0.10;0.10;;;9.00;99.90;;;;;;5079017;28;20045;-83
2022/04/10 11:09:53;;;;;;;0.10;0.10;;;8.80;99.90;;;;;;5085722;28;20037;-81
2022/04/10 11:12:22;;;;;;;0.00;0.00;;;8.70;99.90;;;;;;5058221;28;20050;-81
2022/04/10 11:14:52;;;;;;;0.00;0.00;;;8.80;99.90;;;;;;5087435;28;20098;-81
2022/04/10 11:17:21;;;;;;;0.10;0.10;;;8.70;99.90;;;;;;5087796;28;20041;-81
2022/04/10 11:19:57;;;;;;;0.10;0.10;;;8.70;99.90;;;;;;5078276;28;20061;-81
2022/04/10 11:22:31;;;;;;;0.00;0.00;;;8.70;99.90;;;;;;5066944;28;20041;-83
2022/04/10 11:24:59;;;;;;;0.10;0.10;;;8.80;99.90;;;;;;5083966;28;20091;-81
2022/04/10 11:27:44;;;;;;;0.10;0.10;;;9.00;99.90;;;;;;5055549;28;20118;-83
2022/04/10 11:30:13;;;;;;;0.00;0.00;;;9.10;99.90;;;;;;5051228;28;20045;-81
2022/04/10 11:33:04;;;;;;;0.10;0.10;;;9.40;99.90;;;;;;5056691;28;20489;-81
2022/04/10 11:35:33;;;;;;;0.00;0.00;;;9.40;99.50;;;;;;5064553;28;20052;-83
2022/04/10 11:38:12;;;;;;;0.10;0.10;;;9.20;98.70;;;;;;5059703;28;20098;-83
2022/04/10 11:40:47;;;;;;;0.13;0.13;;;9.10;99.90;;;;;;5054863;28;20070;-81
2022/04/10 11:43:16;;;;;;;0.10;0.10;;;9.20;99.90;;;;;;5060446;28;20067;-81
2022/04/10 11:45:44;;;;;;;0.00;0.00;;;9.20;99.90;;;;;;5055335;28;20479;-83
2022/04/10 11:48:11;;;;;;;0.00;0.00;;;9.20;99.90;;;;;;5063858;28;20076;-83
2022/04/10 11:50:38;;;;;;;0.10;0.10;;;9.20;99.90;;;;;;5035895;28;20049;-81
2022/04/10 11:53:07;;;;;;;0.00;0.00;;;9.40;99.90;;;;;;5053764;28;20041;-81
2022/04/10 11:55:43;;;;;;;0.10;0.10;;;9.70;99.90;;;;;;5065184;28;20030;-81
2022/04/10 11:58:25;;;;;;;0.10;0.10;;;9.80;99.90;;;;;;5077798;28;20075;-82
2022/04/10 12:00:59;;;;;;;0.08;0.08;;;9.70;99.90;;;;;;5053784;28;20079;-81
2022/04/10 12:03:29;;;;;;;0.00;0.00;;;9.70;99.90;;;;;;5069591;28;20790;-83
2022/04/10 12:05:56;;;;;;;0.10;0.10;;;9.50;99.90;;;;;;5057936;28;20072;-81
2022/04/10 12:08:24;;;;;;;0.00;0.00;;;9.60;99.90;;;;;;5078738;28;20093;-84
2022/04/10 12:10:52;;;;;;;0.00;0.00;;;9.70;99.90;;;;;;5048677;28;20064;-82
2022/04/10 12:13:19;;;;;;;0.00;0.00;;;9.60;99.90;;;;;;5052513;28;20138;-84
2022/04/10 12:15:45;;;;;;;0.00;0.00;;;9.60;99.90;;;;;;5050029;28;20074;-82
2022/04/10 12:18:13;;;;;;;0.00;0.00;;;9.80;99.90;;;;;;5054889;28;20037;-84
2022/04/10 12:20:43;;;;;;;0.03;0.03;;;10.00;99.90;;;;;;5065903;28;20056;-82
2022/04/10 12:23:17;;;;;;;0.00;0.00;;;10.10;99.90;;;;;;5049605;28;20176;-84
2022/04/10 12:25:44;;;;;;;0.00;0.00;;;10.30;99.90;;;;;;5065500;28;20496;-81
2022/04/10 12:28:11;;;;;;;0.00;0.00;;;10.20;99.90;;;;;;5045008;28;20037;-84
2022/04/10 12:30:38;;;;;;;0.08;0.08;;;10.00;99.90;;;;;;5049281;28;20045;-82
2022/04/10 12:33:05;;;;;;;0.10;0.10;;;9.90;99.90;;;;;;5073732;28;20045;-84
2022/04/10 12:35:39;;;;;;;0.00;0.00;;;9.80;99.90;;;;;;5068828;28;20041;-84
2022/04/10 12:38:07;;;;;;;0.00;0.00;;;9.40;99.90;;;;;;5060731;28;20040;-82
2022/04/10 12:40:37;;;;;;;0.00;0.00;;;9.30;99.90;;;;;;5088806;28;20402;-82
2022/04/10 12:43:05;;;;;;;0.00;0.00;;;9.30;99.90;;;;;;5068155;28;20037;-83
2022/04/10 12:45:33;;;;;;;0.00;0.00;;;9.20;99.90;;;;;;5080596;28;20122;-82
2022/04/10 12:48:00;;;;;;;0.10;0.10;;;9.50;99.90;;;;;;5086035;28;20401;-82
2022/04/10 12:50:28;;;;;;;0.00;0.00;;;9.70;99.90;;;;;;5052322;28;20049;-82
2022/04/10 12:52:55;;;;;;;0.10;0.10;;;10.00;99.90;;;;;;5071687;28;20072;-82
2022/04/10 12:55:32;;;;;;;0.00;0.00;;;10.00;99.90;;;;;;5080325;28;20457;-84
2022/04/10 12:58:07;;;;;;;0.00;0.00;;;9.90;99.90;;;;;;5089219;28;20098;-82
2022/04/10 13:00:36;;;;;;;0.03;0.03;;;9.90;99.10;;;;;;5070927;28;20033;-81
2022/04/10 13:03:18;;;;;;;0.00;0.00;;;10.00;99.50;;;;;;5095160;28;20040;-79
2022/04/10 13:06:04;;;;;;;0.10;0.10;;;10.10;99.80;;;;;;5085691;28;20037;-81
2022/04/10 13:08:38;;;;;;;0.00;0.00;;;10.20;99.10;;;;;;5080419;28;20048;-84